Nearby METAR Reports

 

KSJC - San Jose, California, USA
Distance from station: NE 14km
Updated: 03/12/2022 16:17
Mostly cloudy
Mostly cloudy
 Wind from calm
Wind: Calm
Temperature: 7°C
Dew Point: 5°C
Humidity: 87%
Barometer: 1016.9 hPa
Clouds: Mostly cloudy
Visibility: 14 km
Cloud details: Few Clouds 183 m
Partly cloudy 488 m
Mostly cloudy 1067 m
2022/12/03 14:17 KSJC 031417Z 00000KT 9SM FEW006 SCT016 BKN035 07/05 A3003 RMK AO2 T00720050
KNUQ - Moffett Nas/Mtn, California, USA
Distance from station: N 14km
Updated: 03/12/2022 16:35
Mist, Overcast
Mist, Overcast
 Wind from calm
Wind: Calm
Temperature: 7°C
Dew Point: 6°C
Humidity: 93%
Barometer: 1016.9 hPa
Summary: Mist
Clouds: Overcast
Visibility: 5 km
Cloud details: Mostly cloudy 244 m
Overcast 366 m
2022/12/03 14:35 KNUQ 031435Z AUTO 00000KT 3SM BR BKN008 OVC012 07/06 A3003 RMK AO2
 
KPAO - Palo Alto, California, USA
Distance from station: NNW 23km
Updated: 03/12/2022 06:47
NOT Current
Clear
Clear
 Wind from varies
Wind: varies 7 km/h
Temperature: 5°C
Wind Chill: 3°C
Dew Point: 3°C
Humidity: 87%
Barometer: 1019 hPa
Clouds: Clear
Visibility: 16 km
2022/12/03 04:47 KPAO 030447Z VRB04KT 10SM SKC 05/03 A3009 RMK LAST
KRHV - San Jose/Reid, California, USA
Distance from station: ENE 19km
Updated: 03/12/2022 07:55
NOT Current
Mostly cloudy
Mostly cloudy
 Wind from calm
Wind: Calm
Temperature: 6°C
Dew Point: 3°C
Humidity: 81%
Barometer: 1019 hPa
Clouds: Mostly cloudy
Visibility: 16 km
Cloud details: Mostly cloudy 6096 m
2022/12/03 05:55 KRHV 030555Z 00000KT 10SM BKN200 06/03 A3009 RMK LAST
 
KOAK - Oakland, California, USA
Distance from station: NNW 50km
Updated: 03/12/2022 16:12
Light rain, Mist, Overcast
Light rain, Mist, Overcast
 Wind from E
Wind: E 7 km/h
Temperature: 7°C
Wind Chill: 6°C
Dew Point: 5°C
Humidity: 87%
Barometer: 1017.3 hPa
Summary: Light rain, Mist
Clouds: Overcast
Visibility: 5 km
Cloud details: Overcast 366 m
2022/12/03 14:12 KOAK 031412Z 09004KT 3SM -RA BR OVC012 07/05 A3004 RMK AO2 P0001 T00670050
KSQL - San Carlos Airpo, California, USA
Distance from station: NW 34km
Updated: 03/12/2022 16:35
Mist
Mist
 Wind from calm
Wind: Calm
Temperature: 7°C
Dew Point: 7°C
Humidity: 100%
Barometer: 1017.3 hPa
Summary: Mist
Visibility: 6 km
2022/12/03 14:35 KSQL 031435Z AUTO 00000KT 4SM BR 07/07 A3004 RMK AO2
 
KSFO - San Francisco, California, USA
Distance from station: NW 49km
Updated: 03/12/2022 16:11
Mist, Overcast
Mist, Overcast
 Wind from S
Wind: S 9 km/h
Temperature: 7°C
Wind Chill: 6°C
Dew Point: 7°C
Humidity: 100%
Barometer: 1016.9 hPa
Summary: Mist
Clouds: Overcast
Visibility: 5 km
Cloud details: Few Clouds 152 m
Mostly cloudy 213 m
Overcast 488 m
2022/12/03 14:11 KSFO 031411Z 17005KT 3SM BR FEW005 BKN007 OVC016 07/07 A3003 RMK AO2 T00720067
KE16 - San Martin, California, USA
Distance from station: ESE 43km
Updated: 03/12/2022 16:15
Mostly cloudy
Mostly cloudy
 Wind from calm
Wind: Calm
Temperature: 6°C
Dew Point: 5°C
Humidity: 93%
Barometer: 1017.3 hPa
Clouds: Mostly cloudy
Visibility: 16 km
Cloud details: Partly cloudy 1494 m
Mostly cloudy 3353 m
2022/12/03 14:15 KE16 031415Z AUTO 00000KT 10SM SCT049 BKN110 06/05 A3004 RMK AO2
 
KWVI - Watsonville, California, USA
Distance from station: SSE 44km
Updated: 03/12/2022 16:29
Light rain, Overcast
Light rain, Overcast
 Wind from calm
Wind: Calm
Temperature: 7°C
Dew Point: 6°C
Humidity: 93%
Barometer: 1016.9 hPa
Summary: Light rain
Clouds: Overcast
Visibility: 16 km
Cloud details: Mostly cloudy 579 m
Overcast 1219 m
2022/12/03 14:29 KWVI 031429Z AUTO 00000KT 10SM -RA BKN019 OVC040 07/06 A3003 RMK AO2 RAB13 P0001 T00670056
KHAF - Half Moon Bay, California, USA
Distance from station: WNW 50km
Updated: 03/12/2022 16:35
Mist, Overcast
Mist, Overcast
 Wind from calm
Wind: Calm
Temperature: 9°C
Dew Point: 9°C
Humidity: 100%
Barometer: 1016.6 hPa
Summary: Mist
Clouds: Overcast
Visibility: 5 km
Cloud details: Few Clouds 213 m
Few Clouds 305 m
Overcast 640 m
2022/12/03 14:35 KHAF 031435Z AUTO 00000KT 3SM BR FEW007 FEW010 OVC021 09/09 A3002 RMK AO2
 
KHWD - Hayward, California, USA
Distance from station: N 44km
Updated: 03/12/2022 16:36
Light rain, Mist, Overcast
Light rain, Mist, Overcast
 Wind from ENE
Wind: ENE 7 km/h
Temperature: 7°C
Wind Chill: 6°C
Dew Point: 6°C
Humidity: 93%
Barometer: 1016.9 hPa
Summary: Light rain, Mist
Clouds: Overcast
Visibility: 5 km
Cloud details: Overcast 427 m
2022/12/03 14:36 KHWD 031436Z AUTO 06004KT 3SM -RA BR OVC014 07/06 A3003 RMK AO2 P0001 T00720061
KLVK - Livermore, California, USA
Distance from station: NNE 51km
Updated: 03/12/2022 15:53
Overcast
Overcast
 Wind from W
Wind: W 7 km/h
Temperature: 6°C
Wind Chill: 4°C
Dew Point: 4°C
Humidity: 87%
Barometer: 1016.9 hPa
Clouds: Overcast
Visibility: 16 km
Cloud details: Partly cloudy 914 m
Overcast 1158 m
2022/12/03 13:53 KLVK 031353Z AUTO 27004KT 10SM SCT030 OVC038 06/04 A3003 RMK AO2 SLP168 T00610039